Forside
METAR-TAF:

METAR-TAF

Lufthavne :

Clinton Municipal Airport

Clinton, Iowa, USA

Breddekreds: 41-50N, længdekreds: 090-20W, højde: 216 m

Aktuelle vejr

Denne rapport blev lavet for 39 minutter siden, kl. 11:56 UTC
Vind 5 kt fra østnordøst
Temperatur 1°C
Fugtighed 100%
Tryk 1019 hPa
Sigt: 16.1 km
Brudte skyer i en højde af 2400 ft

METAR: KCWI 311156Z AUTO 07005KT 10SM BKN024 01/01 A3010 RMK AO2 SLP201 T00110006 10039 20006 53008 FZRANO

Tid: 07:35 (12:35 UTC)


TAF: fraværende

Vejrobservationer og prognoser fra mere end 4000 lufthavne (METAR og TAF).

De gule og røde prikker repræsenterer de meteorologiske stationer.

Flyt musen over at se navnet på stationen.

Så klik over at se vejr observationer og prognoser.

At skifte det kort: Klik på de grønne knapper med et sort kors for at zoome ind; på den grønne knap med en bindestreg for at zoome ud; eller på de grønne pile for tilstødende kort.


METAR-TAF: